Time;durP1;ratioP1;P1;durP2;ratioP2;P2;SDS_P1;SDS_P2;PMS_P1;PMS_P2;Temp;Humidity;BMP_temperature;BMP_pressure;BME280_temperature;BME280_humidity;BME280_pressure;Samples;Min_cycle;Max_cycle;Signal;HPM_P1;HPM_P2
2022/02/08 00:01:02;;;;;;;15.97;4.27;;;;;;;;;;6253782;28;20228;-65
2022/02/08 00:04:31;;;;;;;13.43;3.43;;;;;;;;;;6250599;28;20909;-66
2022/02/08 00:07:54;;;;;;;7.43;2.83;;;;;;;;;;6247331;28;20236;-65
2022/02/08 00:11:16;;;;;;;13.13;3.47;;;;;;;;;;6251931;28;20592;-65
2022/02/08 00:14:36;;;;;;;7.90;3.07;;;;;;;;;;6251631;28;20304;-65
2022/02/08 00:17:57;;;;;;;7.97;3.70;;;;;;;;;;6272585;28;20621;-65
2022/02/08 00:21:17;;;;;;;10.93;3.97;;;;;;;;;;6257827;28;20496;-65
2022/02/08 00:24:38;;;;;;;10.43;3.03;;;;;;;;;;6262653;28;20877;-65
2022/02/08 00:28:01;;;;;;;9.93;4.07;;;;;;;;;;6262365;28;20243;-65
2022/02/08 00:31:23;;;;;;;8.87;3.97;;;;;;;;;;6246190;28;20240;-66
2022/02/08 00:34:44;;;;;;;11.23;3.90;;;;;;;;;;6242684;28;20244;-66
2022/02/08 00:38:04;;;;;;;11.37;3.80;;;;;;;;;;6221422;28;20275;-64
2022/02/08 00:41:26;;;;;;;6.83;3.27;;;;;;;;;;6253327;28;20855;-65
2022/02/08 00:44:53;;;;;;;9.70;3.73;;;;;;;;;;6242957;28;20319;-66
2022/02/08 00:48:17;;;;;;;5.63;2.60;;;;;;;;;;6265708;28;21050;-65
2022/02/08 00:51:42;;;;;;;9.83;3.37;;;;;;;;;;6236802;28;20601;-65
2022/02/08 00:55:04;;;;;;;10.37;3.20;;;;;;;;;;6260389;28;20490;-64
2022/02/08 00:58:25;;;;;;;5.73;3.47;;;;;;;;;;6261422;28;20236;-65
2022/02/08 01:01:48;;;;;;;6.60;2.70;;;;;;;;;;6262061;28;20238;-66
2022/02/08 01:05:12;;;;;;;11.33;4.73;;;;;;;;;;6263715;28;20224;-64
2022/02/08 01:08:34;;;;;;;13.17;5.50;;;;;;;;;;6264882;28;20227;-64
2022/02/08 01:11:55;;;;;;;9.27;3.73;;;;;;;;;;6258726;28;20229;-65
2022/02/08 01:15:17;;;;;;;8.13;2.67;;;;;;;;;;6263715;28;20236;-65
2022/02/08 01:18:42;;;;;;;8.07;3.53;;;;;;;;;;6261160;28;20232;-65
2022/02/08 01:22:03;;;;;;;9.77;3.13;;;;;;;;;;6262811;28;20232;-65
2022/02/08 01:25:29;;;;;;;12.53;3.70;;;;;;;;;;6264437;28;20618;-65
2022/02/08 01:28:55;;;;;;;10.77;3.00;;;;;;;;;;6257480;28;20787;-65
2022/02/08 01:32:33;;;;;;;8.93;3.57;;;;;;;;;;6259190;28;20224;-65
2022/02/08 01:36:10;;;;;;;12.20;4.00;;;;;;;;;;6260266;28;20243;-65
2022/02/08 01:39:40;;;;;;;13.03;4.20;;;;;;;;;;6259732;28;20231;-65
2022/02/08 01:47:00;;;;;;;10.83;3.63;;;;;;;;;;6228815;28;20311;-65
2022/02/08 01:50:21;;;;;;;16.13;3.33;;;;;;;;;;6247296;28;20232;-65
2022/02/08 01:53:43;;;;;;;9.50;3.83;;;;;;;;;;6255277;28;20229;-64
2022/02/08 01:57:04;;;;;;;22.53;7.00;;;;;;;;;;6247260;28;20231;-65
2022/02/08 02:00:25;;;;;;;13.20;4.63;;;;;;;;;;6247913;28;20235;-65
2022/02/08 02:03:46;;;;;;;8.90;4.00;;;;;;;;;;6254924;28;20235;-65
2022/02/08 02:07:06;;;;;;;10.03;5.07;;;;;;;;;;6254393;28;20231;-64
2022/02/08 02:10:28;;;;;;;13.13;5.50;;;;;;;;;;6233472;28;20251;-63
2022/02/08 02:13:51;;;;;;;10.83;4.43;;;;;;;;;;6257555;28;20228;-65
2022/02/08 02:17:13;;;;;;;14.90;5.17;;;;;;;;;;6258574;28;20314;-65
2022/02/08 02:20:36;;;;;;;12.50;4.87;;;;;;;;;;6254822;28;20236;-65
2022/02/08 02:23:58;;;;;;;15.60;5.00;;;;;;;;;;6261496;28;20223;-65
2022/02/08 02:27:20;;;;;;;11.97;5.90;;;;;;;;;;6233518;28;20239;-66
2022/02/08 02:30:41;;;;;;;13.73;5.23;;;;;;;;;;6253813;28;20236;-65
2022/02/08 02:34:03;;;;;;;15.57;7.00;;;;;;;;;;6258141;28;20228;-64
2022/02/08 02:37:23;;;;;;;16.10;8.07;;;;;;;;;;6255610;28;20228;-65
2022/02/08 02:40:46;;;;;;;14.43;5.77;;;;;;;;;;6255797;28;20228;-64
2022/02/08 02:44:16;;;;;;;12.67;6.70;;;;;;;;;;6246223;28;20219;-64
2022/02/08 02:47:37;;;;;;;12.53;5.67;;;;;;;;;;6257829;28;20251;-64
2022/02/08 02:51:00;;;;;;;13.33;5.67;;;;;;;;;;6257880;28;20252;-65
2022/02/08 02:54:28;;;;;;;16.40;6.40;;;;;;;;;;6259381;28;20228;-65
2022/02/08 02:57:55;;;;;;;12.00;7.13;;;;;;;;;;6241169;28;20232;-65
2022/02/08 03:01:26;;;;;;;15.23;7.90;;;;;;;;;;6242385;28;20235;-64
2022/02/08 03:04:59;;;;;;;12.77;7.23;;;;;;;;;;6223050;28;20259;-66
2022/02/08 03:19:18;;;;;;;18.23;10.03;;;;;;;;;;6208080;28;20244;-66
2022/02/08 03:22:39;;;;;;;17.83;10.20;;;;;;;;;;6266572;28;20240;-65
2022/02/08 03:26:01;;;;;;;13.23;9.87;;;;;;;;;;6250023;28;20232;-66
2022/02/08 03:29:26;;;;;;;12.77;8.20;;;;;;;;;;6258113;28;20228;-65
2022/02/08 03:32:49;;;;;;;16.93;10.07;;;;;;;;;;6254214;28;20326;-65
2022/02/08 03:36:10;;;;;;;16.03;10.57;;;;;;;;;;6246946;28;20830;-65
2022/02/08 03:39:38;;;;;;;16.97;11.60;;;;;;;;;;6261136;28;20231;-65
2022/02/08 03:43:26;;;;;;;17.13;12.33;;;;;;;;;;6227165;28;20227;-65
2022/02/08 03:46:48;;;;;;;17.17;11.90;;;;;;;;;;6231137;28;20215;-65
2022/02/08 03:50:12;;;;;;;14.40;10.63;;;;;;;;;;6259903;28;20239;-65
2022/02/08 03:53:32;;;;;;;15.90;11.60;;;;;;;;;;6236913;28;20270;-65
2022/02/08 03:56:53;;;;;;;14.53;11.23;;;;;;;;;;6232676;28;20235;-64
2022/02/08 04:00:15;;;;;;;17.13;12.73;;;;;;;;;;6255255;28;20232;-65
2022/02/08 04:03:46;;;;;;;17.30;11.77;;;;;;;;;;6265366;28;20250;-64
2022/02/08 04:07:13;;;;;;;18.40;12.30;;;;;;;;;;6228512;28;20231;-65
2022/02/08 04:10:33;;;;;;;18.63;13.07;;;;;;;;;;6258921;28;20594;-65
2022/02/08 04:14:00;;;;;;;18.93;11.50;;;;;;;;;;6237186;28;20232;-65
2022/02/08 04:17:33;;;;;;;17.07;13.27;;;;;;;;;;6257021;28;20220;-65
2022/02/08 04:36:02;;;;;;;23.07;15.93;;;;;;;;;;6255347;28;20216;-65
2022/02/08 04:39:42;;;;;;;24.03;14.50;;;;;;;;;;6232390;28;20308;-65
2022/02/08 04:43:23;;;;;;;22.93;16.17;;;;;;;;;;6252046;28;20235;-65
2022/02/08 04:46:49;;;;;;;23.90;17.17;;;;;;;;;;6229613;28;20224;-65
2022/02/08 04:50:11;;;;;;;24.13;15.83;;;;;;;;;;6241557;28;20689;-65
2022/02/08 04:53:37;;;;;;;19.90;16.63;;;;;;;;;;6233005;28;20235;-64
2022/02/08 04:57:08;;;;;;;21.30;15.73;;;;;;;;;;6257922;28;20283;-65
2022/02/08 05:00:35;;;;;;;22.33;17.90;;;;;;;;;;6238599;28;20246;-65
2022/02/08 05:44:08;;;;;;;22.63;19.03;;;;;;;;;;6258198;28;20231;-65
2022/02/08 05:47:28;;;;;;;21.43;18.60;;;;;;;;;;6261322;28;20294;-65
2022/02/08 05:50:57;;;;;;;23.03;19.30;;;;;;;;;;6258763;28;20277;-64
2022/02/08 05:54:19;;;;;;;23.10;17.33;;;;;;;;;;6261938;28;20819;-64
2022/02/08 05:57:40;;;;;;;24.70;19.70;;;;;;;;;;6259479;28;20345;-65
2022/02/08 06:01:00;;;;;;;22.20;18.67;;;;;;;;;;6256879;28;20228;-65
2022/02/08 06:04:39;;;;;;;25.03;22.37;;;;;;;;;;6220037;28;20244;-64
2022/02/08 06:08:02;;;;;;;25.07;20.20;;;;;;;;;;6261212;28;20501;-65
2022/02/08 06:11:25;;;;;;;30.30;22.40;;;;;;;;;;6258685;28;20232;-65
2022/02/08 06:14:55;;;;;;;25.33;21.90;;;;;;;;;;6260425;28;20240;-65
2022/02/08 06:18:16;;;;;;;27.93;21.57;;;;;;;;;;6264425;28;20594;-64
2022/02/08 06:21:36;;;;;;;27.63;22.67;;;;;;;;;;6262736;28;20231;-64
2022/02/08 06:24:56;;;;;;;28.43;21.90;;;;;;;;;;6261217;28;20307;-65
2022/02/08 06:28:21;;;;;;;25.77;20.10;;;;;;;;;;6257027;28;20231;-65
2022/02/08 06:31:44;;;;;;;26.53;21.93;;;;;;;;;;6257300;28;20323;-65
2022/02/08 06:35:10;;;;;;;28.00;22.67;;;;;;;;;;6253215;28;20220;-66
2022/02/08 06:38:30;;;;;;;28.93;22.43;;;;;;;;;;6256649;28;20239;-63
2022/02/08 06:41:51;;;;;;;32.77;23.97;;;;;;;;;;6255789;28;20562;-64
2022/02/08 06:45:15;;;;;;;31.50;23.50;;;;;;;;;;6252205;28;20232;-64
2022/02/08 06:48:35;;;;;;;30.60;20.53;;;;;;;;;;6251202;28;20267;-65
2022/02/08 06:51:57;;;;;;;29.87;23.43;;;;;;;;;;6249353;28;20244;-64
2022/02/08 06:55:18;;;;;;;25.03;22.20;;;;;;;;;;6251323;28;20323;-64
2022/02/08 06:58:48;;;;;;;28.33;21.63;;;;;;;;;;6259745;28;20544;-65
2022/02/08 07:02:10;;;;;;;28.90;24.20;;;;;;;;;;6245280;28;20235;-63
2022/02/08 07:05:31;;;;;;;31.57;23.43;;;;;;;;;;6240277;28;20243;-65
2022/02/08 07:08:52;;;;;;;29.23;25.33;;;;;;;;;;6259208;28;20255;-66
2022/02/08 07:12:13;;;;;;;30.67;23.17;;;;;;;;;;6261003;28;20235;-65
2022/02/08 07:15:33;;;;;;;29.67;23.40;;;;;;;;;;6258606;28;20227;-66
2022/02/08 07:18:55;;;;;;;31.30;22.17;;;;;;;;;;6257945;28;20231;-67
2022/02/08 07:22:15;;;;;;;29.83;22.30;;;;;;;;;;6258548;28;20246;-64
2022/02/08 07:25:36;;;;;;;26.30;21.73;;;;;;;;;;6224746;28;20239;-64
2022/02/08 07:28:57;;;;;;;33.60;22.33;;;;;;;;;;6262097;28;20617;-65
2022/02/08 07:32:18;;;;;;;27.83;23.10;;;;;;;;;;6257174;28;20318;-65
2022/02/08 07:35:50;;;;;;;34.07;23.50;;;;;;;;;;6255944;28;20617;-65
2022/02/08 07:39:22;;;;;;;35.67;24.33;;;;;;;;;;6256133;28;20231;-67
2022/02/08 07:42:43;;;;;;;37.60;25.70;;;;;;;;;;6252620;28;20321;-64
2022/02/08 07:46:05;;;;;;;34.27;24.53;;;;;;;;;;6256270;28;20251;-65
2022/02/08 07:49:27;;;;;;;29.97;23.67;;;;;;;;;;6258171;28;20228;-65
2022/02/08 07:52:50;;;;;;;31.97;25.77;;;;;;;;;;6248727;28;20579;-64
2022/02/08 07:56:12;;;;;;;35.90;24.90;;;;;;;;;;6251450;28;20239;-64
2022/02/08 07:59:32;;;;;;;28.00;24.30;;;;;;;;;;6254363;28;20227;-66
2022/02/08 08:02:53;;;;;;;39.70;28.40;;;;;;;;;;6248225;28;20223;-65
2022/02/08 08:06:16;;;;;;;30.50;25.83;;;;;;;;;;6252657;28;20326;-63
2022/02/08 08:09:40;;;;;;;32.70;25.10;;;;;;;;;;6257990;28;20236;-64
2022/02/08 08:13:03;;;;;;;28.77;24.43;;;;;;;;;;6246394;28;20239;-65
2022/02/08 08:16:29;;;;;;;33.10;24.27;;;;;;;;;;6234303;28;20236;-66
2022/02/08 08:19:50;;;;;;;38.30;24.97;;;;;;;;;;6258540;28;20284;-65
2022/02/08 08:23:10;;;;;;;30.80;24.33;;;;;;;;;;6258523;28;20327;-65
2022/02/08 08:26:32;;;;;;;32.47;24.60;;;;;;;;;;6256412;28;20235;-66
2022/02/08 08:29:53;;;;;;;29.70;22.60;;;;;;;;;;6252880;28;20323;-66
2022/02/08 08:33:14;;;;;;;30.20;23.23;;;;;;;;;;6244657;28;20232;-65
2022/02/08 08:36:35;;;;;;;29.73;21.10;;;;;;;;;;6257660;28;20625;-67
2022/02/08 08:40:03;;;;;;;26.57;20.47;;;;;;;;;;6257967;28;20225;-67
2022/02/08 08:50:58;;;;;;;24.93;20.57;;;;;;;;;;6260148;28;20224;-66
2022/02/08 08:54:19;;;;;;;24.10;19.23;;;;;;;;;;6261759;28;20590;-68
2022/02/08 08:57:40;;;;;;;24.03;17.27;;;;;;;;;;6261770;28;20511;-68
2022/02/08 09:01:03;;;;;;;25.07;18.27;;;;;;;;;;6257025;28;20623;-66
2022/02/08 09:04:29;;;;;;;22.53;14.90;;;;;;;;;;6258746;28;20232;-66
2022/02/08 09:07:50;;;;;;;20.90;15.03;;;;;;;;;;6258315;28;20665;-66
2022/02/08 09:11:16;;;;;;;24.20;16.80;;;;;;;;;;6259242;28;20224;-67
2022/02/08 09:14:49;;;;;;;22.80;15.37;;;;;;;;;;6259386;28;20696;-66
2022/02/08 09:18:24;;;;;;;16.53;14.50;;;;;;;;;;6257088;28;20537;-65
2022/02/08 09:29:06;;;;;;;14.23;10.80;;;;;;;;;;6262215;28;20231;-64
2022/02/08 09:32:39;;;;;;;18.37;14.60;;;;;;;;;;6250022;28;20224;-66
2022/02/08 09:36:01;;;;;;;15.87;13.33;;;;;;;;;;6259007;28;20235;-66
2022/02/08 09:39:22;;;;;;;19.07;11.77;;;;;;;;;;6264359;28;20235;-64
2022/02/08 09:42:43;;;;;;;17.03;13.27;;;;;;;;;;6261466;28;20610;-66
2022/02/08 09:46:05;;;;;;;12.87;10.77;;;;;;;;;;6262364;28;20240;-65
2022/02/08 09:49:26;;;;;;;13.50;10.87;;;;;;;;;;6259888;28;20254;-67
2022/02/08 09:52:51;;;;;;;13.83;10.60;;;;;;;;;;6229555;28;20280;-65
2022/02/08 09:56:13;;;;;;;12.43;9.73;;;;;;;;;;6258768;28;20236;-66
2022/02/08 09:59:35;;;;;;;11.00;9.60;;;;;;;;;;6262094;28;20235;-65
2022/02/08 10:03:04;;;;;;;10.17;8.43;;;;;;;;;;6253144;28;20272;-67
2022/02/08 10:06:25;;;;;;;14.70;9.90;;;;;;;;;;6259904;28;20270;-66
2022/02/08 10:09:47;;;;;;;10.70;7.53;;;;;;;;;;6257888;28;20235;-65
2022/02/08 10:13:19;;;;;;;9.37;8.40;;;;;;;;;;6255735;28;20232;-66
2022/02/08 10:23:58;;;;;;;9.10;7.30;;;;;;;;;;6262206;28;20239;-66
2022/02/08 10:27:29;;;;;;;15.77;8.00;;;;;;;;;;6260091;28;20633;-66
2022/02/08 10:31:08;;;;;;;13.00;7.13;;;;;;;;;;6258007;28;20236;-64
2022/02/08 10:38:08;;;;;;;9.83;7.07;;;;;;;;;;6251469;28;20223;-66
2022/02/08 10:41:33;;;;;;;8.80;7.33;;;;;;;;;;6255890;28;20568;-65
2022/02/08 10:44:55;;;;;;;13.70;7.20;;;;;;;;;;6262649;28;20251;-66
2022/02/08 10:48:21;;;;;;;9.27;6.27;;;;;;;;;;6255743;28;20852;-66
2022/02/08 10:51:47;;;;;;;8.23;5.40;;;;;;;;;;6256208;28;20323;-65
2022/02/08 10:55:17;;;;;;;10.60;6.17;;;;;;;;;;6261329;28;20601;-66
2022/02/08 10:58:45;;;;;;;9.40;6.07;;;;;;;;;;6262325;28;20235;-66
2022/02/08 11:02:13;;;;;;;9.30;5.60;;;;;;;;;;6256539;28;20227;-67
2022/02/08 11:05:43;;;;;;;9.80;5.37;;;;;;;;;;6259880;28;20223;-66
2022/02/08 11:09:20;;;;;;;7.37;5.50;;;;;;;;;;6256655;28;20358;-68
2022/02/08 11:12:49;;;;;;;14.50;6.57;;;;;;;;;;6255940;28;20322;-65
2022/02/08 11:16:18;;;;;;;9.40;3.87;;;;;;;;;;6252561;28;20327;-65
2022/02/08 11:19:49;;;;;;;10.73;5.40;;;;;;;;;;6255047;28;20310;-66
2022/02/08 11:23:16;;;;;;;9.20;5.20;;;;;;;;;;6250090;28;20228;-65
2022/02/08 11:26:41;;;;;;;10.30;6.27;;;;;;;;;;6249706;28;20296;-65
2022/02/08 11:30:09;;;;;;;11.63;5.90;;;;;;;;;;6255017;28;20228;-64
2022/02/08 11:44:58;;;;;;;10.97;5.70;;;;;;;;;;6258566;28;20236;-65
2022/02/08 11:52:17;;;;;;;11.77;5.90;;;;;;;;;;6243876;28;20672;-64
2022/02/08 11:56:14;;;;;;;11.87;7.00;;;;;;;;;;6248275;28;20232;-68
2022/02/08 11:59:48;;;;;;;14.27;6.50;;;;;;;;;;6251114;28;20772;-68
2022/02/08 12:07:02;;;;;;;11.40;4.93;;;;;;;;;;6252621;28;20224;-65
2022/02/08 12:10:27;;;;;;;9.87;6.00;;;;;;;;;;6262261;28;20224;-64
2022/02/08 12:26:56;;;;;;;12.03;5.10;;;;;;;;;;6260016;28;20310;-64
2022/02/08 12:36:15;;;;;;;10.80;5.37;;;;;;;;;;6261774;28;20232;-65
2022/02/08 12:48:28;;;;;;;7.50;4.63;;;;;;;;;;6261216;28;20235;-65
2022/02/08 12:58:49;;;;;;;11.60;4.57;;;;;;;;;;6237330;27;20845;-65
2022/02/08 13:02:19;;;;;;;7.90;4.17;;;;;;;;;;6226656;28;20240;-66
2022/02/08 13:06:27;;;;;;;6.50;4.27;;;;;;;;;;6225351;28;20232;-66
2022/02/08 14:05:31;;;;;;;3.37;3.07;;;;;;;;;;6222283;28;20212;-65
2022/02/08 14:09:15;;;;;;;4.03;3.20;;;;;;;;;;6203768;28;20577;-65
2022/02/08 14:16:31;;;;;;;3.80;2.60;;;;;;;;;;6206344;28;20242;-68
2022/02/08 14:20:03;;;;;;;4.50;3.67;;;;;;;;;;6210241;28;20251;-66
2022/02/08 14:23:52;;;;;;;3.77;2.57;;;;;;;;;;6212965;28;20264;-67
2022/02/08 15:05:40;;;;;;;1.83;1.73;;;;;;;;;;6289800;28;20230;-66
2022/02/08 15:09:02;;;;;;;2.63;2.27;;;;;;;;;;6307397;28;20249;-67
2022/02/08 15:12:27;;;;;;;2.60;2.07;;;;;;;;;;6307100;27;20234;-66
2022/02/08 15:16:18;;;;;;;2.63;2.43;;;;;;;;;;6302968;28;20538;-66
2022/02/08 15:19:43;;;;;;;1.93;1.83;;;;;;;;;;6301613;28;20238;-66
2022/02/08 15:23:08;;;;;;;1.70;1.60;;;;;;;;;;6290591;27;20238;-64
2022/02/08 15:26:29;;;;;;;1.60;1.50;;;;;;;;;;6298696;27;20258;-64
2022/02/08 15:29:54;;;;;;;1.70;1.60;;;;;;;;;;6295266;27;20589;-64
2022/02/08 15:33:15;;;;;;;1.60;1.50;;;;;;;;;;6290500;28;20226;-64
2022/02/08 15:36:37;;;;;;;1.57;1.47;;;;;;;;;;6311430;27;21530;-64
2022/02/08 15:40:01;;;;;;;1.43;1.33;;;;;;;;;;6310147;27;20234;-65
2022/02/08 15:43:22;;;;;;;1.70;1.40;;;;;;;;;;6306856;27;20223;-65
2022/02/08 15:46:43;;;;;;;2.87;1.40;;;;;;;;;;6307539;27;20324;-64
2022/02/08 15:50:10;;;;;;;1.33;1.23;;;;;;;;;;6308882;27;20326;-65
2022/02/08 15:53:49;;;;;;;1.47;1.30;;;;;;;;;;6308083;28;20337;-65
2022/02/08 15:57:41;;;;;;;1.63;1.53;;;;;;;;;;6307244;27;20222;-64
2022/02/08 16:01:07;;;;;;;0.77;0.73;;;;;;;;;;6303883;27;20234;-65
2022/02/08 16:08:14;;;;;;;0.90;0.90;;;;;;;;;;6308786;28;20239;-65
2022/02/08 16:11:50;;;;;;;1.83;1.13;;;;;;;;;;6297815;27;20229;-65
2022/02/08 16:18:52;;;;;;;2.70;1.20;;;;;;;;;;6269499;28;20619;-65
2022/02/08 16:22:31;;;;;;;1.27;1.17;;;;;;;;;;6262338;28;20228;-64
2022/02/08 16:26:01;;;;;;;1.30;1.20;;;;;;;;;;6287961;28;20235;-64
2022/02/08 16:29:54;;;;;;;1.40;1.30;;;;;;;;;;6291930;28;20218;-65
2022/02/08 16:33:39;;;;;;;1.00;1.00;;;;;;;;;;6288153;28;20226;-64
2022/02/08 16:55:26;;;;;;;2.77;2.03;;;;;;;;;;6291447;28;20242;-64
2022/02/08 16:58:51;;;;;;;1.83;1.27;;;;;;;;;;6293467;28;20223;-65
2022/02/08 17:10:59;;;;;;;4.47;2.80;;;;;;;;;;6275628;28;20214;-65
2022/02/08 17:14:28;;;;;;;3.10;2.40;;;;;;;;;;6287331;28;20255;-65
2022/02/08 17:47:19;;;;;;;5.80;2.97;;;;;;;;;;6244068;28;20239;-66
2022/02/08 17:50:39;;;;;;;4.43;2.50;;;;;;;;;;6251770;28;20236;-65
2022/02/08 17:54:00;;;;;;;2.20;2.00;;;;;;;;;;6255438;28;20232;-65
2022/02/08 18:06:06;;;;;;;1.80;1.70;;;;;;;;;;6240794;28;20230;-66
2022/02/08 18:09:28;;;;;;;4.17;2.40;;;;;;;;;;6260152;28;20227;-66
2022/02/08 18:12:51;;;;;;;2.50;2.00;;;;;;;;;;6275050;28;20231;-65
2022/02/08 18:16:11;;;;;;;3.13;1.40;;;;;;;;;;6279334;28;20227;-67
2022/02/08 18:19:35;;;;;;;1.93;1.30;;;;;;;;;;6268615;28;20507;-67
2022/02/08 18:23:15;;;;;;;2.67;2.10;;;;;;;;;;6281300;28;20246;-65
2022/02/08 18:56:23;;;;;;;3.37;3.07;;;;;;;;;;6278423;28;20230;-66
2022/02/08 19:07:10;;;;;;;2.73;2.53;;;;;;;;;;6283049;28;20691;-68
2022/02/08 19:11:32;;;;;;;3.40;2.33;;;;;;;;;;6277025;28;20230;-66
2022/02/08 19:18:33;;;;;;;2.00;1.90;;;;;;;;;;6277281;28;20247;-67
2022/02/08 19:21:55;;;;;;;2.03;1.93;;;;;;;;;;6277050;28;20239;-68
2022/02/08 19:25:16;;;;;;;1.83;1.73;;;;;;;;;;6282133;28;20604;-65
2022/02/08 19:28:36;;;;;;;2.77;2.57;;;;;;;;;;6280322;28;20522;-64
2022/02/08 19:31:57;;;;;;;2.93;2.70;;;;;;;;;;6285774;28;20247;-66
2022/02/08 19:35:21;;;;;;;3.03;2.83;;;;;;;;;;6292082;28;20227;-68
2022/02/08 19:38:47;;;;;;;3.90;3.10;;;;;;;;;;6292552;28;20317;-64
2022/02/08 19:42:09;;;;;;;2.87;2.67;;;;;;;;;;6291098;28;20230;-66
2022/02/08 19:45:35;;;;;;;3.37;3.17;;;;;;;;;;6259288;28;20561;-65
2022/02/08 19:48:56;;;;;;;3.60;3.30;;;;;;;;;;6293977;28;20226;-65
2022/02/08 19:52:18;;;;;;;3.80;3.50;;;;;;;;;;6294865;28;20259;-65
2022/02/08 19:55:45;;;;;;;3.43;3.23;;;;;;;;;;6294561;28;20223;-64
2022/02/08 19:59:08;;;;;;;4.30;3.97;;;;;;;;;;6292639;28;20222;-65
2022/02/08 20:02:29;;;;;;;5.20;4.80;;;;;;;;;;6287821;28;20254;-64
2022/02/08 20:05:50;;;;;;;5.17;4.77;;;;;;;;;;6290631;28;20331;-64
2022/02/08 20:09:11;;;;;;;4.50;4.20;;;;;;;;;;6292024;28;20223;-65
2022/02/08 20:12:32;;;;;;;5.27;4.87;;;;;;;;;;6288294;28;20252;-64
2022/02/08 20:15:53;;;;;;;5.07;4.67;;;;;;;;;;6291238;28;20250;-64
2022/02/08 20:19:16;;;;;;;4.77;4.37;;;;;;;;;;6287128;28;20709;-67
2022/02/08 20:22:36;;;;;;;5.00;4.60;;;;;;;;;;6289386;28;20231;-67
2022/02/08 20:25:58;;;;;;;4.00;3.70;;;;;;;;;;6290776;28;20226;-67
2022/02/08 20:29:24;;;;;;;5.00;4.60;;;;;;;;;;6286242;28;20500;-65
2022/02/08 20:32:45;;;;;;;4.73;4.33;;;;;;;;;;6283791;28;20231;-66
2022/02/08 20:36:05;;;;;;;5.70;5.30;;;;;;;;;;6289373;28;20238;-69
2022/02/08 20:39:27;;;;;;;5.77;5.37;;;;;;;;;;6281200;28;20333;-67
2022/02/08 20:42:51;;;;;;;6.87;6.30;;;;;;;;;;6282512;28;20235;-66
2022/02/08 20:46:13;;;;;;;6.10;5.60;;;;;;;;;;6286291;28;20313;-67
2022/02/08 20:49:34;;;;;;;6.20;5.70;;;;;;;;;;6289751;28;20226;-67
2022/02/08 20:52:58;;;;;;;6.20;5.70;;;;;;;;;;6285842;28;20351;-66
2022/02/08 20:56:28;;;;;;;6.27;5.73;;;;;;;;;;6284330;28;20524;-65
2022/02/08 20:59:51;;;;;;;6.37;5.87;;;;;;;;;;6276938;28;20254;-64
2022/02/08 21:03:24;;;;;;;7.13;6.53;;;;;;;;;;6284758;28;20231;-66
2022/02/08 21:06:45;;;;;;;6.77;6.23;;;;;;;;;;6285377;28;20227;-66
2022/02/08 21:10:06;;;;;;;7.40;6.80;;;;;;;;;;6288265;28;20248;-66
2022/02/08 21:13:41;;;;;;;8.47;7.67;;;;;;;;;;6284421;28;20223;-64
2022/02/08 21:17:03;;;;;;;8.73;8.03;;;;;;;;;;6283512;28;21102;-66
2022/02/08 21:20:24;;;;;;;9.23;8.43;;;;;;;;;;6291529;28;20226;-66
2022/02/08 21:23:45;;;;;;;11.37;10.37;;;;;;;;;;6286431;28;20548;-65
2022/02/08 21:27:08;;;;;;;10.13;9.13;;;;;;;;;;6277570;28;20235;-64
2022/02/08 21:30:49;;;;;;;11.73;8.83;;;;;;;;;;6267711;28;20346;-66
2022/02/08 21:48:54;;;;;;;8.43;7.57;;;;;;;;;;6280419;28;20230;-62
2022/02/08 21:52:29;;;;;;;10.17;9.23;;;;;;;;;;6284307;28;20502;-65
2022/02/08 21:55:51;;;;;;;9.43;8.73;;;;;;;;;;6287579;28;20226;-64
2022/02/08 21:59:11;;;;;;;8.63;7.73;;;;;;;;;;6285226;28;20604;-65
2022/02/08 22:02:32;;;;;;;9.40;8.50;;;;;;;;;;6271333;28;20561;-64
2022/02/08 22:05:53;;;;;;;9.50;8.50;;;;;;;;;;6275833;28;20258;-65
2022/02/08 22:09:17;;;;;;;10.67;9.40;;;;;;;;;;6279798;28;20250;-65
2022/02/08 22:16:33;;;;;;;10.33;9.43;;;;;;;;;;6256183;28;20247;-66
2022/02/08 22:23:36;;;;;;;10.57;9.60;;;;;;;;;;6277408;28;20227;-64
2022/02/08 22:27:23;;;;;;;11.90;10.67;;;;;;;;;;6277454;28;20231;-65
2022/02/08 22:30:49;;;;;;;10.50;9.67;;;;;;;;;;6281227;28;20227;-62
2022/02/08 22:34:14;;;;;;;12.33;11.20;;;;;;;;;;6283669;28;20234;-65
2022/02/08 22:37:39;;;;;;;10.17;9.20;;;;;;;;;;6276590;28;20609;-63
2022/02/08 22:41:08;;;;;;;11.97;10.97;;;;;;;;;;6275492;28;20619;-65
2022/02/08 22:44:37;;;;;;;12.10;11.00;;;;;;;;;;6279506;28;20223;-64
2022/02/08 22:47:58;;;;;;;12.03;10.83;;;;;;;;;;6279114;28;20238;-65
2022/02/08 22:51:18;;;;;;;13.00;11.70;;;;;;;;;;6279018;28;20246;-64
2022/02/08 22:54:39;;;;;;;12.97;11.87;;;;;;;;;;6279466;28;20227;-66
2022/02/08 22:58:06;;;;;;;14.17;12.63;;;;;;;;;;6282369;28;20258;-63
2022/02/08 23:01:28;;;;;;;14.40;13.10;;;;;;;;;;6277933;28;20345;-64
2022/02/08 23:04:49;;;;;;;15.87;14.27;;;;;;;;;;6277986;28;20322;-65
2022/02/08 23:08:10;;;;;;;13.97;12.67;;;;;;;;;;6278816;28;20223;-65
2022/02/08 23:11:51;;;;;;;15.83;14.33;;;;;;;;;;6276926;28;20234;-63
2022/02/08 23:15:23;;;;;;;15.43;14.03;;;;;;;;;;6275330;28;22628;-65
2022/02/08 23:37:00;;;;;;;14.83;13.27;;;;;;;;;;6288909;28;20626;-64
2022/02/08 23:40:21;;;;;;;17.23;15.53;;;;;;;;;;6289907;28;20231;-64
2022/02/08 23:43:43;;;;;;;16.00;14.60;;;;;;;;;;6287428;28;20242;-64
2022/02/08 23:47:06;;;;;;;16.30;14.90;;;;;;;;;;6284952;28;20227;-66
2022/02/08 23:50:35;;;;;;;15.67;14.17;;;;;;;;;;6287157;28;20325;-65
2022/02/08 23:54:00;;;;;;;18.57;16.67;;;;;;;;;;6287596;28;20313;-65
2022/02/08 23:57:26;;;;;;;17.50;15.97;;;;;;;;;;6287577;28;20658;-66
